sensor_id;sensor_type;location;lat;lon;timestamp;P1;durP1;ratioP1;P2;durP2;ratioP2
2850;SDS011;1433;49.976;8.342;2022-09-09T00:01:51;2.47;;;1.90;;
2850;SDS011;1433;49.976;8.342;2022-09-09T00:04:33;2.63;;;2.10;;
2850;SDS011;1433;49.976;8.342;2022-09-09T00:09:34;3.43;;;1.80;;
2850;SDS011;1433;49.976;8.342;2022-09-09T00:17:18;2.23;;;1.87;;
2850;SDS011;1433;49.976;8.342;2022-09-09T00:22:23;2.73;;;1.70;;
2850;SDS011;1433;49.976;8.342;2022-09-09T00:24:52;3.10;;;1.80;;
2850;SDS011;1433;49.976;8.342;2022-09-09T00:29:57;4.27;;;2.37;;
2850;SDS011;1433;49.976;8.342;2022-09-09T00:32:30;2.90;;;1.83;;
2850;SDS011;1433;49.976;8.342;2022-09-09T00:35:12;4.13;;;2.73;;
2850;SDS011;1433;49.976;8.342;2022-09-09T00:37:32;4.17;;;2.30;;
2850;SDS011;1433;49.976;8.342;2022-09-09T00:40:05;2.13;;;1.90;;
2850;SDS011;1433;49.976;8.342;2022-09-09T00:42:37;5.83;;;2.20;;
2850;SDS011;1433;49.976;8.342;2022-09-09T00:47:56;3.63;;;2.30;;
2850;SDS011;1433;49.976;8.342;2022-09-09T00:50:41;2.40;;;1.90;;
2850;SDS011;1433;49.976;8.342;2022-09-09T00:53:39;4.87;;;1.87;;
2850;SDS011;1433;49.976;8.342;2022-09-09T00:56:16;2.37;;;2.03;;
2850;SDS011;1433;49.976;8.342;2022-09-09T00:58:49;1.90;;;1.80;;
2850;SDS011;1433;49.976;8.342;2022-09-09T01:01:28;3.63;;;1.67;;
2850;SDS011;1433;49.976;8.342;2022-09-09T01:03:54;1.70;;;1.60;;
2850;SDS011;1433;49.976;8.342;2022-09-09T01:06:27;4.43;;;2.03;;
2850;SDS011;1433;49.976;8.342;2022-09-09T01:11:55;4.53;;;2.20;;
2850;SDS011;1433;49.976;8.342;2022-09-09T01:17:23;4.37;;;3.00;;
2850;SDS011;1433;49.976;8.342;2022-09-09T01:28:19;2.90;;;1.80;;
2850;SDS011;1433;49.976;8.342;2022-09-09T01:30:50;4.67;;;2.43;;
2850;SDS011;1433;49.976;8.342;2022-09-09T01:33:18;2.47;;;1.80;;
2850;SDS011;1433;49.976;8.342;2022-09-09T01:35:52;3.37;;;2.20;;
2850;SDS011;1433;49.976;8.342;2022-09-09T01:38:31;2.33;;;2.00;;
2850;SDS011;1433;49.976;8.342;2022-09-09T01:40:58;4.10;;;2.70;;
2850;SDS011;1433;49.976;8.342;2022-09-09T01:43:26;2.20;;;2.00;;
2850;SDS011;1433;49.976;8.342;2022-09-09T01:45:54;3.23;;;1.90;;
2850;SDS011;1433;49.976;8.342;2022-09-09T01:48:22;2.10;;;1.90;;
2850;SDS011;1433;49.976;8.342;2022-09-09T01:50:54;2.10;;;1.70;;
2850;SDS011;1433;49.976;8.342;2022-09-09T01:53:21;2.80;;;1.60;;
2850;SDS011;1433;49.976;8.342;2022-09-09T01:58:47;4.00;;;2.33;;
2850;SDS011;1433;49.976;8.342;2022-09-09T02:07:02;2.37;;;1.80;;
2850;SDS011;1433;49.976;8.342;2022-09-09T02:09:32;3.93;;;2.23;;
2850;SDS011;1433;49.976;8.342;2022-09-09T02:12:15;4.83;;;2.30;;
2850;SDS011;1433;49.976;8.342;2022-09-09T02:14:42;3.90;;;2.27;;
2850;SDS011;1433;49.976;8.342;2022-09-09T02:17:13;6.03;;;2.10;;
2850;SDS011;1433;49.976;8.342;2022-09-09T02:19:52;3.77;;;1.87;;
2850;SDS011;1433;49.976;8.342;2022-09-09T02:22:22;3.33;;;2.43;;
2850;SDS011;1433;49.976;8.342;2022-09-09T02:24:52;4.67;;;2.10;;
2850;SDS011;1433;49.976;8.342;2022-09-09T02:27:23;3.90;;;2.37;;
2850;SDS011;1433;49.976;8.342;2022-09-09T02:29:49;2.27;;;1.70;;
2850;SDS011;1433;49.976;8.342;2022-09-09T02:32:21;3.03;;;2.30;;
2850;SDS011;1433;49.976;8.342;2022-09-09T02:34:51;2.80;;;2.60;;
2850;SDS011;1433;49.976;8.342;2022-09-09T02:37:20;5.03;;;2.10;;
2850;SDS011;1433;49.976;8.342;2022-09-09T02:39:51;11.03;;;2.53;;
2850;SDS011;1433;49.976;8.342;2022-09-09T02:42:18;6.27;;;2.30;;
2850;SDS011;1433;49.976;8.342;2022-09-09T02:44:45;1.97;;;1.87;;
2850;SDS011;1433;49.976;8.342;2022-09-09T02:50:13;2.80;;;1.73;;
2850;SDS011;1433;49.976;8.342;2022-09-09T02:52:57;9.23;;;2.87;;
2850;SDS011;1433;49.976;8.342;2022-09-09T02:55:39;3.70;;;2.37;;
2850;SDS011;1433;49.976;8.342;2022-09-09T02:58:09;2.90;;;2.20;;
2850;SDS011;1433;49.976;8.342;2022-09-09T03:00:39;6.23;;;2.30;;
2850;SDS011;1433;49.976;8.342;2022-09-09T03:03:06;3.53;;;2.13;;
2850;SDS011;1433;49.976;8.342;2022-09-09T03:05:34;2.77;;;2.10;;
2850;SDS011;1433;49.976;8.342;2022-09-09T03:08:02;5.10;;;2.40;;
2850;SDS011;1433;49.976;8.342;2022-09-09T03:10:29;2.80;;;2.10;;
2850;SDS011;1433;49.976;8.342;2022-09-09T03:12:57;2.43;;;2.10;;
2850;SDS011;1433;49.976;8.342;2022-09-09T03:15:25;3.60;;;2.50;;
2850;SDS011;1433;49.976;8.342;2022-09-09T03:17:53;4.37;;;2.30;;
2850;SDS011;1433;49.976;8.342;2022-09-09T03:20:21;4.80;;;2.57;;
2850;SDS011;1433;49.976;8.342;2022-09-09T03:22:47;3.90;;;2.90;;
2850;SDS011;1433;49.976;8.342;2022-09-09T03:25:13;3.07;;;2.23;;
2850;SDS011;1433;49.976;8.342;2022-09-09T03:27:40;4.10;;;2.60;;
2850;SDS011;1433;49.976;8.342;2022-09-09T03:30:06;4.00;;;2.60;;
2850;SDS011;1433;49.976;8.342;2022-09-09T03:32:34;5.20;;;2.60;;
2850;SDS011;1433;49.976;8.342;2022-09-09T03:35:00;5.40;;;2.77;;
2850;SDS011;1433;49.976;8.342;2022-09-09T03:37:26;5.43;;;2.83;;
2850;SDS011;1433;49.976;8.342;2022-09-09T03:39:53;3.77;;;2.90;;
2850;SDS011;1433;49.976;8.342;2022-09-09T03:42:21;3.57;;;2.63;;
2850;SDS011;1433;49.976;8.342;2022-09-09T03:44:50;2.10;;;1.90;;
2850;SDS011;1433;49.976;8.342;2022-09-09T03:47:17;3.00;;;2.67;;
2850;SDS011;1433;49.976;8.342;2022-09-09T03:49:45;5.43;;;2.93;;
2850;SDS011;1433;49.976;8.342;2022-09-09T03:52:12;5.43;;;3.23;;
2850;SDS011;1433;49.976;8.342;2022-09-09T03:54:38;5.70;;;3.50;;
2850;SDS011;1433;49.976;8.342;2022-09-09T03:57:05;6.13;;;3.10;;
2850;SDS011;1433;49.976;8.342;2022-09-09T03:59:31;3.97;;;3.00;;
2850;SDS011;1433;49.976;8.342;2022-09-09T04:01:57;3.63;;;3.03;;
2850;SDS011;1433;49.976;8.342;2022-09-09T04:04:24;4.13;;;2.60;;
2850;SDS011;1433;49.976;8.342;2022-09-09T04:06:52;2.83;;;2.63;;
2850;SDS011;1433;49.976;8.342;2022-09-09T04:09:18;4.17;;;3.87;;
2850;SDS011;1433;49.976;8.342;2022-09-09T04:11:45;3.10;;;2.70;;
2850;SDS011;1433;49.976;8.342;2022-09-09T04:14:11;6.00;;;3.60;;
2850;SDS011;1433;49.976;8.342;2022-09-09T04:16:38;3.30;;;3.10;;
2850;SDS011;1433;49.976;8.342;2022-09-09T04:19:05;4.90;;;3.73;;
2850;SDS011;1433;49.976;8.342;2022-09-09T04:21:33;4.87;;;4.43;;
2850;SDS011;1433;49.976;8.342;2022-09-09T04:24:01;4.53;;;2.80;;
2850;SDS011;1433;49.976;8.342;2022-09-09T04:26:27;8.53;;;7.70;;
2850;SDS011;1433;49.976;8.342;2022-09-09T04:28:53;5.83;;;5.10;;
2850;SDS011;1433;49.976;8.342;2022-09-09T04:31:20;8.67;;;4.00;;
2850;SDS011;1433;49.976;8.342;2022-09-09T04:33:50;4.80;;;3.43;;
2850;SDS011;1433;49.976;8.342;2022-09-09T04:36:17;4.57;;;2.80;;
2850;SDS011;1433;49.976;8.342;2022-09-09T04:38:45;3.73;;;2.80;;
2850;SDS011;1433;49.976;8.342;2022-09-09T04:41:14;3.77;;;2.23;;
2850;SDS011;1433;49.976;8.342;2022-09-09T04:43:44;6.53;;;2.87;;
2850;SDS011;1433;49.976;8.342;2022-09-09T04:46:11;2.87;;;2.57;;
2850;SDS011;1433;49.976;8.342;2022-09-09T04:48:37;6.10;;;2.67;;
2850;SDS011;1433;49.976;8.342;2022-09-09T04:51:05;2.73;;;2.40;;
2850;SDS011;1433;49.976;8.342;2022-09-09T04:53:33;3.43;;;2.50;;
2850;SDS011;1433;49.976;8.342;2022-09-09T04:56:04;6.77;;;3.30;;
2850;SDS011;1433;49.976;8.342;2022-09-09T04:58:35;7.67;;;3.00;;
2850;SDS011;1433;49.976;8.342;2022-09-09T05:01:05;3.77;;;3.47;;
2850;SDS011;1433;49.976;8.342;2022-09-09T05:03:33;5.60;;;3.43;;
2850;SDS011;1433;49.976;8.342;2022-09-09T05:06:04;3.63;;;3.33;;
2850;SDS011;1433;49.976;8.342;2022-09-09T05:08:38;6.50;;;3.80;;
2850;SDS011;1433;49.976;8.342;2022-09-09T05:11:13;3.47;;;3.00;;
2850;SDS011;1433;49.976;8.342;2022-09-09T05:13:42;3.10;;;2.20;;
2850;SDS011;1433;49.976;8.342;2022-09-09T05:16:08;5.00;;;2.83;;
2850;SDS011;1433;49.976;8.342;2022-09-09T05:18:37;8.20;;;2.80;;
2850;SDS011;1433;49.976;8.342;2022-09-09T05:21:06;3.90;;;2.70;;
2850;SDS011;1433;49.976;8.342;2022-09-09T05:23:34;10.13;;;2.73;;
2850;SDS011;1433;49.976;8.342;2022-09-09T05:26:01;4.63;;;3.00;;
2850;SDS011;1433;49.976;8.342;2022-09-09T05:28:28;8.17;;;3.43;;
2850;SDS011;1433;49.976;8.342;2022-09-09T05:30:59;3.37;;;2.43;;
2850;SDS011;1433;49.976;8.342;2022-09-09T05:33:31;2.90;;;1.90;;
2850;SDS011;1433;49.976;8.342;2022-09-09T05:36:00;2.40;;;1.93;;
2850;SDS011;1433;49.976;8.342;2022-09-09T05:38:28;3.10;;;1.67;;
2850;SDS011;1433;49.976;8.342;2022-09-09T05:40:56;3.43;;;2.37;;
2850;SDS011;1433;49.976;8.342;2022-09-09T05:43:23;3.63;;;2.17;;
2850;SDS011;1433;49.976;8.342;2022-09-09T05:46:08;7.20;;;3.17;;
2850;SDS011;1433;49.976;8.342;2022-09-09T05:48:34;5.60;;;2.57;;
2850;SDS011;1433;49.976;8.342;2022-09-09T05:50:58;2.43;;;2.20;;
2850;SDS011;1433;49.976;8.342;2022-09-09T05:53:26;2.93;;;2.30;;
2850;SDS011;1433;49.976;8.342;2022-09-09T05:55:59;3.07;;;2.30;;
2850;SDS011;1433;49.976;8.342;2022-09-09T05:58:30;1.93;;;1.73;;
2850;SDS011;1433;49.976;8.342;2022-09-09T06:01:05;7.47;;;2.33;;
2850;SDS011;1433;49.976;8.342;2022-09-09T06:03:37;5.17;;;2.90;;
2850;SDS011;1433;49.976;8.342;2022-09-09T06:06:05;2.83;;;2.00;;
2850;SDS011;1433;49.976;8.342;2022-09-09T06:08:34;2.47;;;2.03;;
2850;SDS011;1433;49.976;8.342;2022-09-09T06:11:10;3.73;;;1.50;;
2850;SDS011;1433;49.976;8.342;2022-09-09T06:13:35;3.67;;;1.87;;
2850;SDS011;1433;49.976;8.342;2022-09-09T06:16:02;2.03;;;1.80;;
2850;SDS011;1433;49.976;8.342;2022-09-09T06:18:30;5.50;;;2.00;;
2850;SDS011;1433;49.976;8.342;2022-09-09T06:20:59;6.43;;;2.33;;
2850;SDS011;1433;49.976;8.342;2022-09-09T06:23:27;6.50;;;2.00;;
2850;SDS011;1433;49.976;8.342;2022-09-09T06:26:10;8.23;;;2.47;;
2850;SDS011;1433;49.976;8.342;2022-09-09T06:28:34;4.70;;;2.10;;
2850;SDS011;1433;49.976;8.342;2022-09-09T06:31:09;3.80;;;1.93;;
2850;SDS011;1433;49.976;8.342;2022-09-09T06:33:38;5.17;;;1.80;;
2850;SDS011;1433;49.976;8.342;2022-09-09T06:36:13;2.40;;;1.40;;
2850;SDS011;1433;49.976;8.342;2022-09-09T06:38:38;5.07;;;2.40;;
2850;SDS011;1433;49.976;8.342;2022-09-09T06:41:04;7.03;;;1.90;;
2850;SDS011;1433;49.976;8.342;2022-09-09T06:43:32;8.00;;;2.50;;
2850;SDS011;1433;49.976;8.342;2022-09-09T06:46:00;4.20;;;2.00;;
2850;SDS011;1433;49.976;8.342;2022-09-09T06:48:32;4.10;;;2.30;;
2850;SDS011;1433;49.976;8.342;2022-09-09T06:51:09;3.10;;;1.80;;
2850;SDS011;1433;49.976;8.342;2022-09-09T06:53:33;6.43;;;2.40;;
2850;SDS011;1433;49.976;8.342;2022-09-09T06:56:01;8.43;;;2.70;;
2850;SDS011;1433;49.976;8.342;2022-09-09T06:58:29;2.63;;;2.40;;
2850;SDS011;1433;49.976;8.342;2022-09-09T07:01:05;3.53;;;2.47;;
2850;SDS011;1433;49.976;8.342;2022-09-09T07:03:32;4.03;;;2.80;;
2850;SDS011;1433;49.976;8.342;2022-09-09T07:06:00;3.93;;;1.73;;
2850;SDS011;1433;49.976;8.342;2022-09-09T07:08:27;15.93;;;2.77;;
2850;SDS011;1433;49.976;8.342;2022-09-09T07:10:54;5.37;;;2.40;;
2850;SDS011;1433;49.976;8.342;2022-09-09T07:13:24;8.43;;;2.60;;
2850;SDS011;1433;49.976;8.342;2022-09-09T07:15:51;4.47;;;2.10;;
2850;SDS011;1433;49.976;8.342;2022-09-09T07:18:18;5.53;;;3.40;;
2850;SDS011;1433;49.976;8.342;2022-09-09T07:20:54;8.67;;;3.40;;
2850;SDS011;1433;49.976;8.342;2022-09-09T07:23:24;5.87;;;2.27;;
2850;SDS011;1433;49.976;8.342;2022-09-09T07:25:52;5.60;;;2.50;;
2850;SDS011;1433;49.976;8.342;2022-09-09T07:28:19;4.00;;;2.63;;
2850;SDS011;1433;49.976;8.342;2022-09-09T07:30:55;3.17;;;2.03;;
2850;SDS011;1433;49.976;8.342;2022-09-09T07:33:25;3.67;;;1.67;;
2850;SDS011;1433;49.976;8.342;2022-09-09T07:35:51;4.30;;;1.67;;
2850;SDS011;1433;49.976;8.342;2022-09-09T07:38:19;6.17;;;2.63;;
2850;SDS011;1433;49.976;8.342;2022-09-09T07:40:46;4.53;;;2.20;;
2850;SDS011;1433;49.976;8.342;2022-09-09T07:43:13;7.60;;;2.97;;
2850;SDS011;1433;49.976;8.342;2022-09-09T07:45:39;2.43;;;2.00;;
2850;SDS011;1433;49.976;8.342;2022-09-09T07:48:06;5.30;;;3.17;;
2850;SDS011;1433;49.976;8.342;2022-09-09T07:50:32;3.30;;;1.93;;
2850;SDS011;1433;49.976;8.342;2022-09-09T07:53:02;2.93;;;2.20;;
2850;SDS011;1433;49.976;8.342;2022-09-09T07:55:36;4.63;;;2.53;;
2850;SDS011;1433;49.976;8.342;2022-09-09T07:58:00;5.17;;;2.43;;
2850;SDS011;1433;49.976;8.342;2022-09-09T08:00:31;4.07;;;2.53;;
2850;SDS011;1433;49.976;8.342;2022-09-09T08:03:04;6.13;;;3.07;;
2850;SDS011;1433;49.976;8.342;2022-09-09T08:05:32;3.63;;;2.40;;
2850;SDS011;1433;49.976;8.342;2022-09-09T08:07:58;4.43;;;2.37;;
2850;SDS011;1433;49.976;8.342;2022-09-09T08:10:26;9.03;;;2.80;;
2850;SDS011;1433;49.976;8.342;2022-09-09T08:12:54;3.80;;;2.63;;
2850;SDS011;1433;49.976;8.342;2022-09-09T08:15:21;5.47;;;3.30;;
2850;SDS011;1433;49.976;8.342;2022-09-09T08:17:55;2.57;;;2.20;;
2850;SDS011;1433;49.976;8.342;2022-09-09T08:20:25;5.57;;;2.60;;
2850;SDS011;1433;49.976;8.342;2022-09-09T08:22:50;3.53;;;2.30;;
2850;SDS011;1433;49.976;8.342;2022-09-09T08:25:18;4.13;;;2.20;;
2850;SDS011;1433;49.976;8.342;2022-09-09T08:27:45;3.67;;;2.00;;
2850;SDS011;1433;49.976;8.342;2022-09-09T08:30:12;3.33;;;2.00;;
2850;SDS011;1433;49.976;8.342;2022-09-09T08:32:40;5.60;;;1.70;;
2850;SDS011;1433;49.976;8.342;2022-09-09T08:35:07;3.97;;;2.80;;
2850;SDS011;1433;49.976;8.342;2022-09-09T08:37:37;4.27;;;2.60;;
2850;SDS011;1433;49.976;8.342;2022-09-09T08:40:04;4.33;;;3.63;;
2850;SDS011;1433;49.976;8.342;2022-09-09T08:42:35;5.13;;;2.73;;
2850;SDS011;1433;49.976;8.342;2022-09-09T08:45:12;2.93;;;2.73;;
2850;SDS011;1433;49.976;8.342;2022-09-09T08:48:05;4.33;;;2.63;;
2850;SDS011;1433;49.976;8.342;2022-09-09T08:55:56;10.03;;;3.20;;
2850;SDS011;1433;49.976;8.342;2022-09-09T08:58:33;4.57;;;2.63;;
2850;SDS011;1433;49.976;8.342;2022-09-09T09:09:07;3.07;;;2.37;;
2850;SDS011;1433;49.976;8.342;2022-09-09T09:11:59;5.03;;;2.70;;
2850;SDS011;1433;49.976;8.342;2022-09-09T09:14:33;5.77;;;2.90;;
2850;SDS011;1433;49.976;8.342;2022-09-09T09:16:59;3.70;;;2.70;;
2850;SDS011;1433;49.976;8.342;2022-09-09T09:19:30;2.57;;;2.13;;
2850;SDS011;1433;49.976;8.342;2022-09-09T09:24:54;7.07;;;3.40;;
2850;SDS011;1433;49.976;8.342;2022-09-09T09:27:43;3.63;;;2.07;;
2850;SDS011;1433;49.976;8.342;2022-09-09T09:35:28;3.37;;;2.03;;
2850;SDS011;1433;49.976;8.342;2022-09-09T09:37:55;3.30;;;2.30;;
2850;SDS011;1433;49.976;8.342;2022-09-09T09:40:25;2.40;;;1.50;;
2850;SDS011;1433;49.976;8.342;2022-09-09T09:42:57;5.10;;;2.67;;
2850;SDS011;1433;49.976;8.342;2022-09-09T09:48:02;5.30;;;2.37;;
2850;SDS011;1433;49.976;8.342;2022-09-09T09:51:21;8.03;;;2.57;;
2850;SDS011;1433;49.976;8.342;2022-09-09T09:53:17;3.63;;;2.13;;
2850;SDS011;1433;49.976;8.342;2022-09-09T09:55:54;3.93;;;2.70;;
2850;SDS011;1433;49.976;8.342;2022-09-09T09:58:27;5.27;;;2.37;;
2850;SDS011;1433;49.976;8.342;2022-09-09T10:04:02;3.47;;;1.93;;
2850;SDS011;1433;49.976;8.342;2022-09-09T10:06:45;3.47;;;2.07;;
2850;SDS011;1433;49.976;8.342;2022-09-09T10:09:22;3.87;;;1.50;;
2850;SDS011;1433;49.976;8.342;2022-09-09T10:12:00;5.63;;;2.50;;
2850;SDS011;1433;49.976;8.342;2022-09-09T10:14:48;3.50;;;2.07;;
2850;SDS011;1433;49.976;8.342;2022-09-09T10:17:20;8.03;;;1.90;;
2850;SDS011;1433;49.976;8.342;2022-09-09T10:19:59;3.73;;;2.23;;
2850;SDS011;1433;49.976;8.342;2022-09-09T10:22:35;2.40;;;2.07;;
2850;SDS011;1433;49.976;8.342;2022-09-09T10:30:33;3.20;;;2.10;;
2850;SDS011;1433;49.976;8.342;2022-09-09T10:33:17;7.13;;;2.50;;
2850;SDS011;1433;49.976;8.342;2022-09-09T10:36:01;2.20;;;1.37;;
2850;SDS011;1433;49.976;8.342;2022-09-09T10:41:18;7.97;;;2.90;;
2850;SDS011;1433;49.976;8.342;2022-09-09T10:46:48;5.20;;;1.83;;
2850;SDS011;1433;49.976;8.342;2022-09-09T10:49:28;7.00;;;2.03;;
2850;SDS011;1433;49.976;8.342;2022-09-09T10:54:59;3.50;;;1.90;;
2850;SDS011;1433;49.976;8.342;2022-09-09T10:57:37;3.60;;;1.80;;
2850;SDS011;1433;49.976;8.342;2022-09-09T11:00:21;3.60;;;2.17;;
2850;SDS011;1433;49.976;8.342;2022-09-09T11:03:02;1.60;;;1.50;;
2850;SDS011;1433;49.976;8.342;2022-09-09T11:05:42;6.23;;;1.87;;
2850;SDS011;1433;49.976;8.342;2022-09-09T11:08:25;3.13;;;2.23;;
2850;SDS011;1433;49.976;8.342;2022-09-09T11:11:03;2.40;;;1.97;;
2850;SDS011;1433;49.976;8.342;2022-09-09T11:21:48;4.10;;;2.53;;
2850;SDS011;1433;49.976;8.342;2022-09-09T11:24:22;2.83;;;1.40;;
2850;SDS011;1433;49.976;8.342;2022-09-09T11:26:55;5.17;;;1.70;;
2850;SDS011;1433;49.976;8.342;2022-09-09T11:32:01;2.30;;;1.90;;
2850;SDS011;1433;49.976;8.342;2022-09-09T11:37:38;2.40;;;1.67;;
2850;SDS011;1433;49.976;8.342;2022-09-09T11:40:09;2.17;;;1.97;;
2850;SDS011;1433;49.976;8.342;2022-09-09T11:42:43;6.17;;;2.23;;
2850;SDS011;1433;49.976;8.342;2022-09-09T11:45:10;2.63;;;2.03;;
2850;SDS011;1433;49.976;8.342;2022-09-09T11:47:39;6.43;;;1.87;;
2850;SDS011;1433;49.976;8.342;2022-09-09T11:52:46;9.47;;;2.07;;
2850;SDS011;1433;49.976;8.342;2022-09-09T11:55:25;2.20;;;1.83;;
2850;SDS011;1433;49.976;8.342;2022-09-09T11:57:59;2.20;;;1.40;;
2850;SDS011;1433;49.976;8.342;2022-09-09T12:00:31;2.93;;;1.60;;
2850;SDS011;1433;49.976;8.342;2022-09-09T12:03:00;2.57;;;1.30;;
2850;SDS011;1433;49.976;8.342;2022-09-09T12:05:37;4.30;;;2.17;;
2850;SDS011;1433;49.976;8.342;2022-09-09T12:08:07;7.37;;;2.60;;
2850;SDS011;1433;49.976;8.342;2022-09-09T12:10:54;3.10;;;1.83;;
2850;SDS011;1433;49.976;8.342;2022-09-09T12:13:29;5.40;;;1.87;;
2850;SDS011;1433;49.976;8.342;2022-09-09T12:16:01;4.97;;;2.13;;
2850;SDS011;1433;49.976;8.342;2022-09-09T12:18:32;6.53;;;2.83;;
2850;SDS011;1433;49.976;8.342;2022-09-09T12:24:11;2.43;;;2.10;;
2850;SDS011;1433;49.976;8.342;2022-09-09T12:29:36;7.43;;;2.30;;
2850;SDS011;1433;49.976;8.342;2022-09-09T12:34:47;2.43;;;1.63;;
2850;SDS011;1433;49.976;8.342;2022-09-09T12:37:29;5.23;;;2.10;;
2850;SDS011;1433;49.976;8.342;2022-09-09T12:40:28;2.57;;;2.20;;
2850;SDS011;1433;49.976;8.342;2022-09-09T12:42:49;4.80;;;2.70;;
2850;SDS011;1433;49.976;8.342;2022-09-09T12:50:25;2.17;;;1.50;;
2850;SDS011;1433;49.976;8.342;2022-09-09T12:53:03;3.83;;;1.93;;
2850;SDS011;1433;49.976;8.342;2022-09-09T12:55:29;1.43;;;1.33;;
2850;SDS011;1433;49.976;8.342;2022-09-09T12:58:00;3.27;;;1.50;;
2850;SDS011;1433;49.976;8.342;2022-09-09T13:00:35;1.10;;;0.90;;
2850;SDS011;1433;49.976;8.342;2022-09-09T13:03:17;5.90;;;1.60;;
2850;SDS011;1433;49.976;8.342;2022-09-09T13:05:50;2.17;;;1.20;;
2850;SDS011;1433;49.976;8.342;2022-09-09T13:08:19;1.63;;;1.30;;
2850;SDS011;1433;49.976;8.342;2022-09-09T13:13:33;2.77;;;1.63;;
2850;SDS011;1433;49.976;8.342;2022-09-09T13:16:04;1.67;;;1.00;;
2850;SDS011;1433;49.976;8.342;2022-09-09T13:18:39;1.40;;;1.20;;
2850;SDS011;1433;49.976;8.342;2022-09-09T13:21:09;1.50;;;1.40;;
2850;SDS011;1433;49.976;8.342;2022-09-09T13:23:36;1.80;;;1.20;;
2850;SDS011;1433;49.976;8.342;2022-09-09T13:26:05;1.50;;;1.17;;
2850;SDS011;1433;49.976;8.342;2022-09-09T13:28:33;2.00;;;1.00;;
2850;SDS011;1433;49.976;8.342;2022-09-09T13:31:01;3.60;;;1.20;;
2850;SDS011;1433;49.976;8.342;2022-09-09T13:33:32;1.97;;;1.00;;
2850;SDS011;1433;49.976;8.342;2022-09-09T13:38:33;1.27;;;0.93;;
2850;SDS011;1433;49.976;8.342;2022-09-09T13:41:09;1.40;;;1.00;;
2850;SDS011;1433;49.976;8.342;2022-09-09T13:43:42;1.93;;;1.30;;
2850;SDS011;1433;49.976;8.342;2022-09-09T13:46:23;2.60;;;1.10;;
2850;SDS011;1433;49.976;8.342;2022-09-09T13:54:13;8.50;;;1.70;;
2850;SDS011;1433;49.976;8.342;2022-09-09T13:56:42;1.80;;;1.07;;
2850;SDS011;1433;49.976;8.342;2022-09-09T13:59:11;3.07;;;1.33;;
2850;SDS011;1433;49.976;8.342;2022-09-09T14:01:40;3.00;;;1.23;;
2850;SDS011;1433;49.976;8.342;2022-09-09T14:04:07;4.10;;;1.30;;
2850;SDS011;1433;49.976;8.342;2022-09-09T14:06:34;2.40;;;1.30;;
2850;SDS011;1433;49.976;8.342;2022-09-09T14:09:05;7.07;;;1.40;;
2850;SDS011;1433;49.976;8.342;2022-09-09T14:11:33;2.97;;;1.23;;
2850;SDS011;1433;49.976;8.342;2022-09-09T14:13:59;1.83;;;1.30;;
2850;SDS011;1433;49.976;8.342;2022-09-09T14:16:26;5.87;;;1.63;;
2850;SDS011;1433;49.976;8.342;2022-09-09T14:18:55;2.27;;;1.60;;
2850;SDS011;1433;49.976;8.342;2022-09-09T14:21:22;3.87;;;2.00;;
2850;SDS011;1433;49.976;8.342;2022-09-09T14:23:49;3.43;;;1.70;;
2850;SDS011;1433;49.976;8.342;2022-09-09T14:26:16;3.80;;;1.70;;
2850;SDS011;1433;49.976;8.342;2022-09-09T14:28:42;2.90;;;1.47;;
2850;SDS011;1433;49.976;8.342;2022-09-09T14:31:08;5.20;;;1.90;;
2850;SDS011;1433;49.976;8.342;2022-09-09T14:33:36;3.03;;;1.67;;
2850;SDS011;1433;49.976;8.342;2022-09-09T14:36:02;4.30;;;2.17;;
2850;SDS011;1433;49.976;8.342;2022-09-09T14:38:34;3.10;;;1.70;;
2850;SDS011;1433;49.976;8.342;2022-09-09T14:40:59;2.53;;;2.03;;
2850;SDS011;1433;49.976;8.342;2022-09-09T14:43:28;3.63;;;1.40;;
2850;SDS011;1433;49.976;8.342;2022-09-09T14:45:55;3.40;;;1.60;;
2850;SDS011;1433;49.976;8.342;2022-09-09T14:48:21;1.73;;;1.20;;
2850;SDS011;1433;49.976;8.342;2022-09-09T14:50:48;3.67;;;2.53;;
2850;SDS011;1433;49.976;8.342;2022-09-09T14:53:16;2.60;;;1.67;;
2850;SDS011;1433;49.976;8.342;2022-09-09T14:55:42;4.63;;;2.60;;
2850;SDS011;1433;49.976;8.342;2022-09-09T14:58:08;2.33;;;1.57;;
2850;SDS011;1433;49.976;8.342;2022-09-09T15:00:34;5.80;;;2.00;;
2850;SDS011;1433;49.976;8.342;2022-09-09T15:03:01;1.77;;;1.20;;
2850;SDS011;1433;49.976;8.342;2022-09-09T15:05:27;5.10;;;1.57;;
2850;SDS011;1433;49.976;8.342;2022-09-09T15:07:53;2.33;;;1.70;;
2850;SDS011;1433;49.976;8.342;2022-09-09T15:10:20;5.13;;;2.03;;
2850;SDS011;1433;49.976;8.342;2022-09-09T15:12:46;2.60;;;1.93;;
2850;SDS011;1433;49.976;8.342;2022-09-09T15:15:12;2.40;;;1.40;;
2850;SDS011;1433;49.976;8.342;2022-09-09T15:17:39;4.43;;;1.47;;
2850;SDS011;1433;49.976;8.342;2022-09-09T15:20:05;5.07;;;2.00;;
2850;SDS011;1433;49.976;8.342;2022-09-09T15:22:32;2.20;;;2.00;;
2850;SDS011;1433;49.976;8.342;2022-09-09T15:24:59;4.17;;;1.30;;
2850;SDS011;1433;49.976;8.342;2022-09-09T15:27:25;3.10;;;2.10;;
2850;SDS011;1433;49.976;8.342;2022-09-09T15:29:51;4.57;;;1.53;;
2850;SDS011;1433;49.976;8.342;2022-09-09T15:32:18;2.33;;;1.97;;
2850;SDS011;1433;49.976;8.342;2022-09-09T15:34:44;1.70;;;1.60;;
2850;SDS011;1433;49.976;8.342;2022-09-09T15:37:11;2.43;;;1.10;;
2850;SDS011;1433;49.976;8.342;2022-09-09T15:39:40;1.50;;;1.20;;
2850;SDS011;1433;49.976;8.342;2022-09-09T15:42:06;1.77;;;1.30;;
2850;SDS011;1433;49.976;8.342;2022-09-09T15:44:40;3.83;;;1.80;;
2850;SDS011;1433;49.976;8.342;2022-09-09T15:47:10;4.90;;;1.70;;
2850;SDS011;1433;49.976;8.342;2022-09-09T15:49:38;2.80;;;1.40;;
2850;SDS011;1433;49.976;8.342;2022-09-09T15:52:04;3.43;;;1.67;;
2850;SDS011;1433;49.976;8.342;2022-09-09T15:54:31;1.30;;;1.20;;
2850;SDS011;1433;49.976;8.342;2022-09-09T15:57:00;2.30;;;1.27;;
2850;SDS011;1433;49.976;8.342;2022-09-09T15:59:29;2.53;;;1.37;;
2850;SDS011;1433;49.976;8.342;2022-09-09T16:01:56;3.73;;;1.50;;
2850;SDS011;1433;49.976;8.342;2022-09-09T16:04:23;2.10;;;1.47;;
2850;SDS011;1433;49.976;8.342;2022-09-09T16:06:50;2.77;;;1.60;;
2850;SDS011;1433;49.976;8.342;2022-09-09T16:09:21;2.13;;;1.73;;
2850;SDS011;1433;49.976;8.342;2022-09-09T16:11:48;2.80;;;2.33;;
2850;SDS011;1433;49.976;8.342;2022-09-09T16:14:15;3.80;;;1.37;;
2850;SDS011;1433;49.976;8.342;2022-09-09T16:16:41;2.23;;;1.83;;
2850;SDS011;1433;49.976;8.342;2022-09-09T16:19:09;3.37;;;1.30;;
2850;SDS011;1433;49.976;8.342;2022-09-09T16:21:39;2.93;;;1.33;;
2850;SDS011;1433;49.976;8.342;2022-09-09T16:24:09;1.73;;;1.30;;
2850;SDS011;1433;49.976;8.342;2022-09-09T16:26:39;5.37;;;1.40;;
2850;SDS011;1433;49.976;8.342;2022-09-09T16:29:09;1.80;;;1.30;;
2850;SDS011;1433;49.976;8.342;2022-09-09T16:31:36;3.70;;;2.13;;
2850;SDS011;1433;49.976;8.342;2022-09-09T16:34:03;1.87;;;1.33;;
2850;SDS011;1433;49.976;8.342;2022-09-09T16:36:31;1.73;;;1.13;;
2850;SDS011;1433;49.976;8.342;2022-09-09T16:39:01;4.07;;;1.27;;
2850;SDS011;1433;49.976;8.342;2022-09-09T16:41:35;2.70;;;1.63;;
2850;SDS011;1433;49.976;8.342;2022-09-09T16:44:03;2.27;;;1.30;;
2850;SDS011;1433;49.976;8.342;2022-09-09T16:46:32;1.40;;;1.30;;
2850;SDS011;1433;49.976;8.342;2022-09-09T16:49:04;2.20;;;1.40;;
2850;SDS011;1433;49.976;8.342;2022-09-09T16:51:37;1.63;;;1.10;;
2850;SDS011;1433;49.976;8.342;2022-09-09T16:54:03;3.90;;;1.40;;
2850;SDS011;1433;49.976;8.342;2022-09-09T16:56:33;1.20;;;1.10;;
2850;SDS011;1433;49.976;8.342;2022-09-09T16:59:06;1.40;;;1.20;;
2850;SDS011;1433;49.976;8.342;2022-09-09T17:01:35;2.10;;;1.20;;
2850;SDS011;1433;49.976;8.342;2022-09-09T17:04:04;1.70;;;1.17;;
2850;SDS011;1433;49.976;8.342;2022-09-09T17:06:33;1.77;;;1.50;;
2850;SDS011;1433;49.976;8.342;2022-09-09T17:09:07;3.60;;;1.50;;
2850;SDS011;1433;49.976;8.342;2022-09-09T17:11:35;2.23;;;1.63;;
2850;SDS011;1433;49.976;8.342;2022-09-09T17:14:02;1.77;;;1.50;;
2850;SDS011;1433;49.976;8.342;2022-09-09T17:16:30;2.03;;;1.60;;
2850;SDS011;1433;49.976;8.342;2022-09-09T17:18:57;4.10;;;2.00;;
2850;SDS011;1433;49.976;8.342;2022-09-09T17:21:27;2.90;;;2.17;;
2850;SDS011;1433;49.976;8.342;2022-09-09T17:23:56;3.37;;;1.93;;
2850;SDS011;1433;49.976;8.342;2022-09-09T17:26:25;9.33;;;2.50;;
2850;SDS011;1433;49.976;8.342;2022-09-09T17:28:53;2.03;;;1.77;;
2850;SDS011;1433;49.976;8.342;2022-09-09T17:31:21;3.77;;;1.80;;
2850;SDS011;1433;49.976;8.342;2022-09-09T17:33:48;3.20;;;2.13;;
2850;SDS011;1433;49.976;8.342;2022-09-09T17:36:24;7.17;;;3.13;;
2850;SDS011;1433;49.976;8.342;2022-09-09T17:38:53;6.13;;;2.67;;